createdAt,value
2018-09-26T00:02:31.126Z,11.60
2018-09-26T00:05:02.950Z,11.50
2018-09-26T00:07:35.246Z,11.50
2018-09-26T00:10:07.047Z,11.50
2018-09-26T00:12:40.766Z,11.60
2018-09-26T00:15:13.530Z,11.60
2018-09-26T00:17:45.927Z,11.60
2018-09-26T00:20:17.488Z,11.60
2018-09-26T00:22:50.287Z,11.50
2018-09-26T00:25:22.526Z,11.50
2018-09-26T00:27:54.566Z,11.50
2018-09-26T00:30:26.647Z,11.50
2018-09-26T00:32:57.706Z,11.50
2018-09-26T00:35:29.307Z,11.50
2018-09-26T00:38:01.149Z,11.50
2018-09-26T00:40:32.887Z,11.50
2018-09-26T00:43:04.526Z,11.50
2018-09-26T00:45:36.207Z,11.50
2018-09-26T00:48:08.247Z,11.60
2018-09-26T00:50:40.846Z,11.60
2018-09-26T00:53:12.448Z,11.40
2018-09-26T00:55:43.953Z,11.30
2018-09-26T00:58:16.168Z,11.30
2018-09-26T01:00:48.606Z,11.20
2018-09-26T01:03:19.827Z,11.20
2018-09-26T01:05:52.247Z,11.20
2018-09-26T01:08:23.767Z,11.20
2018-09-26T01:10:55.587Z,11.20
2018-09-26T01:13:26.747Z,11.20
2018-09-26T01:15:57.669Z,11.10
2018-09-26T01:18:29.567Z,11.10
2018-09-26T01:21:01.126Z,11.00
2018-09-26T01:23:32.827Z,11.10
2018-09-26T01:26:04.006Z,11.00
2018-09-26T01:28:36.206Z,11.10
2018-09-26T01:31:07.707Z,11.10
2018-09-26T01:33:40.267Z,11.00
2018-09-26T01:36:12.407Z,11.00
2018-09-26T01:38:43.948Z,11.00
2018-09-26T01:41:15.397Z,11.00
2018-09-26T01:43:47.806Z,11.00
2018-09-26T01:46:19.067Z,11.00
2018-09-26T01:48:51.588Z,10.90
2018-09-26T01:51:23.027Z,10.90
2018-09-26T01:53:55.747Z,10.90
2018-09-26T01:56:27.888Z,10.80
2018-09-26T01:58:59.127Z,10.80
2018-09-26T02:01:30.487Z,10.70
2018-09-26T02:04:02.287Z,10.70
2018-09-26T02:06:33.547Z,10.60
2018-09-26T02:09:05.787Z,10.60
2018-09-26T02:11:36.887Z,10.60
2018-09-26T02:14:09.368Z,10.60
2018-09-26T02:16:41.166Z,10.60
2018-09-26T02:19:12.767Z,10.60
2018-09-26T02:21:43.927Z,10.60
2018-09-26T02:24:16.007Z,10.50
2018-09-26T02:26:46.867Z,10.50
2018-09-26T02:29:19.107Z,10.50
2018-09-26T02:31:50.487Z,10.50
2018-09-26T02:34:21.694Z,10.50
2018-09-26T02:36:53.427Z,10.40
2018-09-26T02:39:25.107Z,10.50
2018-09-26T02:41:56.807Z,10.40
2018-09-26T02:44:28.267Z,10.50
2018-09-26T02:47:00.069Z,10.50
2018-09-26T02:49:31.386Z,10.50
2018-09-26T02:52:02.567Z,10.50
2018-09-26T02:54:34.507Z,10.50
2018-09-26T02:57:05.687Z,10.50
2018-09-26T02:59:36.987Z,10.50
2018-09-26T03:02:08.369Z,10.50
2018-09-26T03:04:40.588Z,10.40
2018-09-26T03:07:11.827Z,10.30
2018-09-26T03:09:43.447Z,10.40
2018-09-26T03:12:15.187Z,10.40
2018-09-26T03:14:47.667Z,10.50
2018-09-26T03:17:18.867Z,10.40
2018-09-26T03:19:50.207Z,10.40
2018-09-26T03:22:21.787Z,10.40
2018-09-26T03:24:53.547Z,10.40
2018-09-26T03:27:25.594Z,10.40
2018-09-26T03:29:57.126Z,10.30
2018-09-26T03:32:29.127Z,10.30
2018-09-26T03:35:01.217Z,10.30
2018-09-26T03:37:32.707Z,10.30
2018-09-26T03:40:05.167Z,10.30
2018-09-26T03:42:36.411Z,10.30
2018-09-26T03:45:08.510Z,10.20
2018-09-26T03:47:39.689Z,10.20
2018-09-26T03:50:11.887Z,10.20
2018-09-26T03:52:43.426Z,10.10
2018-09-26T03:55:15.246Z,10.10
2018-09-26T03:57:46.906Z,10.00
2018-09-26T04:00:19.127Z,10.00
2018-09-26T04:02:50.267Z,10.00
2018-09-26T04:05:21.966Z,10.00
2018-09-26T04:07:53.606Z,10.00
2018-09-26T04:10:25.307Z,10.10
2018-09-26T04:12:56.657Z,10.10
2018-09-26T04:15:28.337Z,10.10
2018-09-26T04:18:00.007Z,10.00
2018-09-26T04:20:31.597Z,9.90
2018-09-26T04:23:03.448Z,9.90
2018-09-26T04:25:34.606Z,10.00
2018-09-26T04:28:06.235Z,10.00
2018-09-26T04:30:37.827Z,10.00
2018-09-26T04:33:10.354Z,10.00
2018-09-26T04:35:41.747Z,10.00
2018-09-26T04:38:12.846Z,9.90
2018-09-26T04:40:44.826Z,9.80
2018-09-26T04:43:16.911Z,9.80
2018-09-26T04:45:48.206Z,9.90
2018-09-26T04:48:20.247Z,9.90
2018-09-26T04:50:52.232Z,9.90
2018-09-26T04:53:24.051Z,9.80
2018-09-26T04:55:55.747Z,9.80
2018-09-26T04:58:28.129Z,9.70
2018-09-26T05:00:59.820Z,9.70
2018-09-26T05:03:31.527Z,9.80
2018-09-26T05:06:03.366Z,9.70
2018-09-26T05:08:35.395Z,9.70
2018-09-26T05:11:07.027Z,9.80
2018-09-26T05:13:39.127Z,9.70
2018-09-26T05:16:10.388Z,9.80
2018-09-26T05:18:42.467Z,9.80
2018-09-26T05:21:13.968Z,9.80
2018-09-26T05:23:46.127Z,9.80
2018-09-26T05:26:18.232Z,9.80
2018-09-26T05:28:49.987Z,9.80
2018-09-26T05:31:22.548Z,9.80
2018-09-26T05:33:54.234Z,9.80
2018-09-26T05:36:25.669Z,9.80
2018-09-26T05:38:57.267Z,9.80
2018-09-26T05:41:28.667Z,9.80
2018-09-26T05:44:00.067Z,9.90
2018-09-26T05:46:32.026Z,9.90
2018-09-26T05:49:03.687Z,9.90
2018-09-26T05:51:35.907Z,9.80
2018-09-26T05:54:07.781Z,9.80
2018-09-26T05:56:39.527Z,9.90
2018-09-26T05:59:11.826Z,10.00
2018-09-26T06:01:43.730Z,10.10
2018-09-26T06:04:17.127Z,10.00
2018-09-26T06:06:49.107Z,10.10
2018-09-26T06:09:21.965Z,10.20
2018-09-26T06:11:53.127Z,10.10
2018-09-26T06:14:25.227Z,10.10
2018-09-26T06:16:56.478Z,10.10
2018-09-26T06:19:29.015Z,10.10
2018-09-26T06:22:00.956Z,10.20
2018-09-26T06:24:33.447Z,10.10
2018-09-26T06:27:06.696Z,10.00
2018-09-26T06:29:38.936Z,10.00
2018-09-26T06:32:10.869Z,10.00
2018-09-26T06:34:43.688Z,10.10
2018-09-26T06:37:15.649Z,10.10
2018-09-26T06:39:47.529Z,10.10
2018-09-26T06:42:19.769Z,10.00
2018-09-26T06:44:52.003Z,10.00
2018-09-26T06:47:23.650Z,10.10
2018-09-26T06:49:54.722Z,10.20
2018-09-26T06:52:26.482Z,10.30
2018-09-26T06:54:58.402Z,10.40
2018-09-26T06:57:29.611Z,10.50
2018-09-26T07:00:01.484Z,10.80
2018-09-26T07:02:32.643Z,11.00
2018-09-26T07:05:04.626Z,11.20
2018-09-26T07:07:35.886Z,11.30
2018-09-26T07:10:07.463Z,11.60
2018-09-26T07:12:39.103Z,11.70
2018-09-26T07:15:11.344Z,11.80
2018-09-26T07:17:42.743Z,11.80
2018-09-26T07:20:13.758Z,11.80
2018-09-26T07:22:45.739Z,11.90
2018-09-26T07:25:18.023Z,12.10
2018-09-26T07:27:49.861Z,12.10
2018-09-26T07:30:21.160Z,12.90
2018-09-26T07:32:53.229Z,12.10
2018-09-26T07:35:24.789Z,12.20
2018-09-26T07:37:56.689Z,12.30
2018-09-26T07:40:28.829Z,12.40
2018-09-26T07:43:00.530Z,12.50
2018-09-26T07:45:32.733Z,12.40
2018-09-26T07:48:03.790Z,12.40
2018-09-26T07:50:36.169Z,12.40
2018-09-26T07:53:08.210Z,12.50
2018-09-26T07:55:39.949Z,12.60
2018-09-26T07:58:12.249Z,12.70
2018-09-26T08:00:43.992Z,12.80
2018-09-26T08:03:15.871Z,12.90
2018-09-26T08:05:48.040Z,13.00
2018-09-26T08:08:19.514Z,13.00
2018-09-26T08:10:51.674Z,12.90
2018-09-26T08:13:23.895Z,12.80
2018-09-26T08:15:55.495Z,12.70
2018-09-26T08:18:26.975Z,12.70
2018-09-26T08:20:58.846Z,12.70
2018-09-26T08:23:31.192Z,12.90
2018-09-26T08:26:02.119Z,12.90
2018-09-26T08:28:34.223Z,12.90
2018-09-26T08:31:05.640Z,12.90
2018-09-26T08:33:37.859Z,12.20
2018-09-26T08:36:09.500Z,12.80
2018-09-26T08:38:41.559Z,12.80
2018-09-26T08:41:12.879Z,12.80
2018-09-26T08:43:44.713Z,12.80
2018-09-26T08:46:16.161Z,12.90
2018-09-26T08:48:48.321Z,13.10
2018-09-26T08:51:19.721Z,13.10
2018-09-26T08:53:51.593Z,13.10
2018-09-26T08:56:23.358Z,13.20
2018-09-26T08:58:54.388Z,13.30
2018-09-26T09:01:29.906Z,13.40
2018-09-26T09:04:02.796Z,13.30
2018-09-26T09:06:34.390Z,13.30
2018-09-26T09:09:07.887Z,13.30
2018-09-26T09:11:40.366Z,13.40
2018-09-26T09:14:11.769Z,13.60
2018-09-26T09:16:43.840Z,13.70
2018-09-26T09:19:15.441Z,13.70
2018-09-26T09:21:46.838Z,13.90
2018-09-26T09:24:18.708Z,13.90
2018-09-26T09:26:49.749Z,13.70
2018-09-26T09:29:21.520Z,13.70
2018-09-26T09:31:53.330Z,13.70
2018-09-26T09:34:24.963Z,13.80
2018-09-26T09:36:57.267Z,13.80
2018-09-26T09:39:28.575Z,13.90
2018-09-26T09:42:00.268Z,14.00
2018-09-26T09:44:31.858Z,14.20
2018-09-26T09:47:03.417Z,14.40
2018-09-26T09:49:35.777Z,14.50
2018-09-26T09:52:07.706Z,14.70
2018-09-26T09:54:39.703Z,14.90
2018-09-26T09:57:12.158Z,15.00
2018-09-26T09:59:43.517Z,15.10
2018-09-26T10:02:15.609Z,15.10
2018-09-26T10:04:47.246Z,15.20
2018-09-26T10:07:19.521Z,15.40
2018-09-26T10:09:50.098Z,15.40
2018-09-26T10:12:23.204Z,15.50
2018-09-26T10:14:54.626Z,15.60
2018-09-26T10:17:26.867Z,15.70
2018-09-26T10:19:58.223Z,15.80
2018-09-26T10:22:30.863Z,15.90
2018-09-26T10:25:02.367Z,16.10
2018-09-26T10:27:33.624Z,16.10
2018-09-26T10:30:04.762Z,16.20
2018-09-26T10:32:36.822Z,16.20
2018-09-26T10:35:08.642Z,16.20
2018-09-26T10:37:40.782Z,16.20
2018-09-26T10:40:13.161Z,16.40
2018-09-26T10:42:45.360Z,16.70
2018-09-26T10:45:17.351Z,16.90
2018-09-26T10:47:49.151Z,16.80
2018-09-26T10:50:21.012Z,17.00
2018-09-26T10:52:53.691Z,17.20
2018-09-26T10:55:24.871Z,17.30
2018-09-26T10:57:56.614Z,17.60
2018-09-26T11:00:28.980Z,17.50
2018-09-26T11:03:00.819Z,17.60
2018-09-26T11:05:32.421Z,17.70
2018-09-26T11:08:03.973Z,17.50
2018-09-26T11:10:35.552Z,17.60
2018-09-26T11:13:08.173Z,17.70
2018-09-26T11:15:38.431Z,17.70
2018-09-26T11:18:10.550Z,17.90
2018-09-26T11:20:41.851Z,18.20
2018-09-26T11:23:12.610Z,18.40
2018-09-26T11:25:44.201Z,18.50
2018-09-26T11:28:16.325Z,18.50
2018-09-26T11:30:48.360Z,18.60
2018-09-26T11:33:19.813Z,18.60
2018-09-26T11:35:51.998Z,18.70
2018-09-26T11:38:24.032Z,18.90
2018-09-26T11:40:55.696Z,19.00
2018-09-26T11:43:27.845Z,19.20
2018-09-26T11:46:00.205Z,19.20
2018-09-26T11:48:31.080Z,19.30
2018-09-26T11:51:02.822Z,19.40
2018-09-26T11:53:34.803Z,19.70
2018-09-26T11:56:06.989Z,19.60
2018-09-26T11:58:38.123Z,19.50
2018-09-26T12:01:09.779Z,19.50
2018-09-26T12:03:41.419Z,19.50
2018-09-26T12:06:12.696Z,19.80
2018-09-26T12:08:44.307Z,20.00
2018-09-26T12:11:16.448Z,20.20
2018-09-26T12:13:48.308Z,20.30
2018-09-26T12:16:20.176Z,20.20
2018-09-26T12:18:51.686Z,19.90
2018-09-26T12:21:30.444Z,19.70
2018-09-26T12:23:55.246Z,20.00
2018-09-26T12:26:26.619Z,20.40
2018-09-26T12:29:03.650Z,20.50
2018-09-26T12:31:34.411Z,20.70
2018-09-26T12:34:06.686Z,21.00
2018-09-26T12:36:38.255Z,21.20
2018-09-26T12:39:11.815Z,21.70
2018-09-26T12:41:43.615Z,21.90
2018-09-26T12:44:15.323Z,22.10
2018-09-26T12:46:48.384Z,22.10
2018-09-26T12:49:19.825Z,21.70
2018-09-26T12:51:51.619Z,21.70
2018-09-26T12:54:23.700Z,21.80
2018-09-26T12:56:56.142Z,21.70
2018-09-26T12:59:28.304Z,21.80
2018-09-26T13:02:00.792Z,21.60
2018-09-26T13:04:32.660Z,21.50
2018-09-26T13:07:04.260Z,21.30
2018-09-26T13:09:36.710Z,21.20
2018-09-26T13:12:08.187Z,20.90
2018-09-26T13:14:40.553Z,20.50
2018-09-26T13:17:12.340Z,20.30
2018-09-26T13:19:43.380Z,20.20
2018-09-26T13:22:14.458Z,20.00
2018-09-26T13:24:46.980Z,19.90
2018-09-26T13:27:18.866Z,19.70
2018-09-26T13:29:50.621Z,19.60
2018-09-26T13:32:21.930Z,19.40
2018-09-26T13:34:53.120Z,19.40
2018-09-26T13:37:24.806Z,19.40
2018-09-26T13:39:56.688Z,19.40
2018-09-26T13:42:28.529Z,19.20
2018-09-26T13:45:00.485Z,19.10
2018-09-26T13:47:32.642Z,19.00
2018-09-26T13:50:04.026Z,19.00
2018-09-26T13:52:36.197Z,18.90
2018-09-26T13:55:08.359Z,18.80
2018-09-26T13:57:40.015Z,18.80
2018-09-26T14:00:12.663Z,18.80
2018-09-26T14:02:45.815Z,18.80
2018-09-26T14:05:17.454Z,18.60
2018-09-26T14:07:49.094Z,18.60
2018-09-26T14:10:20.954Z,18.50
2018-09-26T14:12:53.914Z,18.50
2018-09-26T14:15:26.173Z,18.50
2018-09-26T14:17:57.974Z,18.50
2018-09-26T14:20:30.059Z,18.50
2018-09-26T14:23:01.840Z,18.50
2018-09-26T14:25:34.535Z,18.50
2018-09-26T14:28:07.280Z,18.50
2018-09-26T14:30:39.430Z,18.40
2018-09-26T14:33:11.573Z,18.30
2018-09-26T14:35:42.909Z,18.30
2018-09-26T14:38:14.814Z,18.30
2018-09-26T14:40:46.972Z,18.20
2018-09-26T14:43:19.509Z,18.10
2018-09-26T14:45:50.934Z,18.10
2018-09-26T14:48:23.410Z,18.20
2018-09-26T14:50:55.592Z,18.30
2018-09-26T14:53:27.334Z,18.40
2018-09-26T14:55:59.211Z,18.40
2018-09-26T14:58:30.891Z,18.40
2018-09-26T15:01:03.509Z,18.40
2018-09-26T15:03:36.171Z,18.40
2018-09-26T15:06:08.215Z,18.40
2018-09-26T15:08:39.654Z,18.40
2018-09-26T15:11:11.888Z,18.40
2018-09-26T15:13:44.449Z,18.40
2018-09-26T15:16:16.509Z,18.40
2018-09-26T15:18:48.576Z,18.40
2018-09-26T15:21:19.670Z,18.40
2018-09-26T15:23:52.050Z,18.40
2018-09-26T15:26:22.841Z,18.40
2018-09-26T15:28:54.798Z,18.40
2018-09-26T15:31:26.318Z,18.40
2018-09-26T15:33:59.803Z,18.40
2018-09-26T15:36:32.078Z,18.40
2018-09-26T15:39:03.598Z,18.30
2018-09-26T15:41:37.381Z,18.20
2018-09-26T15:44:09.401Z,18.30
2018-09-26T15:46:41.217Z,18.30
2018-09-26T15:49:13.462Z,18.20
2018-09-26T15:51:45.778Z,18.20
2018-09-26T15:54:17.621Z,18.20
2018-09-26T15:56:49.799Z,18.20
2018-09-26T15:59:21.438Z,18.30
2018-09-26T16:01:53.678Z,18.30
2018-09-26T16:04:26.794Z,18.30
2018-09-26T16:06:58.338Z,18.30
2018-09-26T16:09:29.978Z,18.40
2018-09-26T16:12:02.099Z,18.30
2018-09-26T16:14:34.079Z,18.40
2018-09-26T16:17:07.420Z,18.40
2018-09-26T16:19:39.719Z,18.40
2018-09-26T16:22:12.308Z,18.30
2018-09-26T16:24:43.701Z,18.30
2018-09-26T16:27:15.899Z,18.30
2018-09-26T16:29:47.720Z,18.30
2018-09-26T16:32:20.498Z,18.30
2018-09-26T16:34:51.899Z,18.30
2018-09-26T16:37:24.319Z,18.30
2018-09-26T16:39:56.459Z,18.30
2018-09-26T16:42:28.300Z,18.30
2018-09-26T16:45:00.361Z,18.30
2018-09-26T16:47:31.420Z,18.30
2018-09-26T16:50:03.421Z,18.20
2018-09-26T16:52:35.026Z,18.20
2018-09-26T16:55:07.340Z,18.10
2018-09-26T16:57:39.479Z,18.10
2018-09-26T17:00:11.691Z,18.00
2018-09-26T17:02:44.522Z,18.00
2018-09-26T17:05:16.141Z,18.00
2018-09-26T17:07:48.439Z,18.00
2018-09-26T17:10:20.279Z,17.90
2018-09-26T17:12:51.959Z,17.90
2018-09-26T17:15:25.100Z,17.80
2018-09-26T17:17:56.759Z,17.80
2018-09-26T17:20:28.920Z,17.70
2018-09-26T17:22:59.799Z,17.70
2018-09-26T17:25:31.579Z,17.60
2018-09-26T17:28:03.407Z,17.60
2018-09-26T17:30:35.519Z,17.50
2018-09-26T17:33:06.858Z,17.50
2018-09-26T17:35:39.200Z,17.40
2018-09-26T17:38:11.079Z,17.30
2018-09-26T17:40:44.059Z,17.30
2018-09-26T17:43:16.579Z,17.20
2018-09-26T17:45:48.198Z,17.20
2018-09-26T17:48:20.298Z,17.20
2018-09-26T17:50:52.019Z,17.10
2018-09-26T17:53:23.005Z,17.10
2018-09-26T17:55:54.449Z,17.10
2018-09-26T17:58:26.628Z,17.00
2018-09-26T18:00:57.907Z,17.00
2018-09-26T18:03:29.679Z,17.00
2018-09-26T18:06:01.047Z,16.90
2018-09-26T18:08:32.607Z,16.90
2018-09-26T18:11:04.686Z,16.80
2018-09-26T18:13:36.246Z,16.70
2018-09-26T18:16:08.646Z,16.70
2018-09-26T18:18:41.606Z,16.60
2018-09-26T18:21:13.425Z,16.70
2018-09-26T18:23:46.345Z,16.70
2018-09-26T18:26:17.659Z,16.60
2018-09-26T18:28:49.709Z,16.60
2018-09-26T18:31:21.647Z,16.60
2018-09-26T18:33:53.686Z,16.50
2018-09-26T18:36:25.826Z,16.50
2018-09-26T18:38:57.971Z,16.50
2018-09-26T18:41:29.905Z,16.40
2018-09-26T18:44:01.906Z,16.30
2018-09-26T18:46:33.947Z,16.30
2018-09-26T18:49:05.886Z,16.20
2018-09-26T18:51:37.946Z,16.10
2018-09-26T18:54:10.026Z,16.10
2018-09-26T18:56:41.505Z,16.10
2018-09-26T18:59:14.030Z,16.10
2018-09-26T19:01:45.468Z,16.10
2018-09-26T19:04:17.508Z,16.10
2018-09-26T19:06:49.045Z,16.10
2018-09-26T19:09:21.146Z,16.00
2018-09-26T19:11:52.365Z,16.00
2018-09-26T19:14:24.225Z,16.00
2018-09-26T19:16:56.165Z,15.90
2018-09-26T19:19:28.367Z,15.90
2018-09-26T19:22:00.165Z,15.80
2018-09-26T19:24:31.485Z,15.80
2018-09-26T19:27:03.962Z,15.80
2018-09-26T19:29:36.185Z,15.80
2018-09-26T19:32:08.026Z,15.80
2018-09-26T19:34:39.487Z,15.70
2018-09-26T19:37:11.206Z,15.60
2018-09-26T19:39:43.088Z,15.60
2018-09-26T19:42:14.547Z,15.60
2018-09-26T19:44:47.348Z,15.50
2018-09-26T19:47:19.528Z,15.50
2018-09-26T19:49:51.527Z,15.50
2018-09-26T19:52:23.734Z,15.50
2018-09-26T19:54:55.326Z,15.40
2018-09-26T19:57:27.627Z,15.40
2018-09-26T19:59:59.605Z,15.40
2018-09-26T20:02:31.487Z,15.40
2018-09-26T20:05:03.485Z,15.40
2018-09-26T20:07:35.467Z,15.40
2018-09-26T20:10:08.569Z,15.30
2018-09-26T20:12:41.087Z,15.30
2018-09-26T20:15:12.767Z,15.30
2018-09-26T20:17:45.185Z,15.30
2018-09-26T20:20:17.405Z,15.30
2018-09-26T20:22:49.668Z,15.20
2018-09-26T20:25:21.885Z,15.30
2018-09-26T20:27:53.787Z,15.20
2018-09-26T20:30:26.345Z,15.20
2018-09-26T20:32:58.346Z,15.20
2018-09-26T20:35:30.401Z,15.20
2018-09-26T20:38:02.465Z,15.10
2018-09-26T20:40:34.665Z,15.10
2018-09-26T20:43:07.145Z,15.10
2018-09-26T20:45:39.705Z,15.00
2018-09-26T20:48:11.686Z,15.10
2018-09-26T20:50:44.305Z,15.10
2018-09-26T20:53:16.505Z,15.00
2018-09-26T20:55:47.766Z,15.00
2018-09-26T20:58:20.093Z,15.00
2018-09-26T21:00:52.506Z,15.00
2018-09-26T21:03:25.669Z,15.00
2018-09-26T21:05:57.747Z,15.00
2018-09-26T21:08:30.965Z,14.90
2018-09-26T21:11:02.565Z,14.90
2018-09-26T21:13:34.245Z,14.90
2018-09-26T21:16:05.787Z,14.90
2018-09-26T21:18:38.186Z,14.90
2018-09-26T21:21:09.607Z,14.90
2018-09-26T21:23:41.726Z,14.80
2018-09-26T21:26:13.926Z,14.80
2018-09-26T21:28:45.552Z,14.80
2018-09-26T21:31:18.220Z,14.80
2018-09-26T21:33:50.126Z,14.80
2018-09-26T21:36:22.028Z,14.80
2018-09-26T21:38:53.857Z,14.70
2018-09-26T21:41:25.626Z,14.70
2018-09-26T21:43:57.866Z,14.70
2018-09-26T21:46:29.566Z,14.60
2018-09-26T21:49:01.506Z,14.70
2018-09-26T21:51:33.287Z,14.60
2018-09-26T21:54:05.126Z,14.60
2018-09-26T21:56:36.985Z,14.50
2018-09-26T21:59:08.204Z,14.50
2018-09-26T22:01:40.284Z,14.50
2018-09-26T22:04:12.844Z,14.40
2018-09-26T22:06:44.964Z,14.40
2018-09-26T22:09:16.843Z,14.30
2018-09-26T22:11:48.586Z,14.30
2018-09-26T22:14:20.943Z,14.30
2018-09-26T22:16:53.563Z,14.30
2018-09-26T22:19:25.504Z,14.20
2018-09-26T22:21:57.405Z,14.20
2018-09-26T22:24:29.222Z,14.20
2018-09-26T22:27:00.944Z,14.20
2018-09-26T22:29:32.622Z,14.20
2018-09-26T22:32:04.624Z,14.10
2018-09-26T22:34:37.111Z,14.10
2018-09-26T22:37:09.044Z,14.10
2018-09-26T22:39:41.604Z,14.10
2018-09-26T22:42:12.824Z,14.10
2018-09-26T22:44:45.505Z,14.10
2018-09-26T22:47:17.804Z,14.20
2018-09-26T22:49:50.064Z,14.10
2018-09-26T22:52:21.868Z,14.10
2018-09-26T22:54:53.585Z,14.10
2018-09-26T22:57:25.808Z,14.10
2018-09-26T22:59:57.804Z,14.00
2018-09-26T23:02:30.324Z,14.00
2018-09-26T23:05:02.525Z,14.00
2018-09-26T23:07:34.324Z,13.90
2018-09-26T23:10:06.124Z,13.80
2018-09-26T23:12:37.484Z,13.80
2018-09-26T23:15:09.744Z,13.80
2018-09-26T23:17:41.464Z,13.70
2018-09-26T23:20:13.624Z,13.80
2018-09-26T23:22:45.444Z,13.70
2018-09-26T23:25:17.024Z,13.70
2018-09-26T23:27:49.506Z,13.70
2018-09-26T23:30:21.225Z,13.60
2018-09-26T23:32:53.345Z,13.60
2018-09-26T23:35:24.484Z,13.60
2018-09-26T23:37:56.444Z,13.50
2018-09-26T23:40:28.384Z,13.50
2018-09-26T23:43:00.324Z,13.50
2018-09-26T23:45:31.825Z,13.50
2018-09-26T23:48:04.505Z,13.50
2018-09-26T23:50:35.504Z,13.40
2018-09-26T23:53:07.824Z,13.40
2018-09-26T23:55:39.664Z,13.40
2018-09-26T23:58:10.524Z,13.40
